• Join FlightAware (Why Join?)
  • Login
  • US Flag 
03:02PM EDT


 

Airport Tracker/Info


-or-


 

Live Flight TrackerFlight Track Log ✈ AAY894 ✈ 06-Mar-2014 ✈ KPIE - KIAG

Flight Track Log - Related Links

Times and Time Zones

All times are in EST time to prevent confusion due to time zone crossing. See the AAY894 flight status page for this flight to view local times or setup timezone preferences in your user account.

Time Position Orientation Groundspeed Altitude Reporting Facility
EST Latitude Longitude Course Direction KTS MPH feet Rate Location/Type
08:34AM 27.8833 -82.6833 180° South 168 193 1,000  Level Tampa TRACON
08:35AM 27.8667 -82.6833 180° South 169 194 2,100 1,980 Climbing Tampa TRACON
08:36AM 27.8500 -82.7333 249° West 250 288 4,000 2,400 Climbing Tampa TRACON
08:38AM 27.9753 -82.7300 North 312 359 8,500 2,580 Climbing Miami Center
08:39AM 28.0556 -82.6814 28° Northeast 321 369 11,000 2,040 Climbing Miami Center
08:40AM 28.1517 -82.6289 26° Northeast 335 386 12,600 2,040 Climbing Jacksonville Center
08:41AM 28.2517 -82.5722 27° Northeast 373 429 15,100 2,280 Climbing Jacksonville Center
08:42AM 28.3600 -82.5058 28° Northeast 406 467 17,200 1,800 Climbing Jacksonville Center
08:43AM 28.4706 -82.4606 20° North 417 480 18,800 1,320 Climbing Jacksonville Center
08:44AM 28.5853 -82.4458 North 417 480 19,900 1,140 Climbing Jacksonville Center
08:45AM 28.6772 -82.4689 348° North 405 466 21,100 1,320 Climbing Jacksonville Center
08:46AM 28.8067 -82.4944 350° North 410 472 22,600 1,500 Climbing Jacksonville Center
08:47AM 28.9236 -82.5178 350° North 415 478 24,100 1,260 Climbing Jacksonville Center
08:48AM 29.0469 -82.5411 351° North 427 491 25,200 1,140 Climbing Jacksonville Center
08:49AM 29.1700 -82.5619 352° North 439 505 26,400 1,020 Climbing Jacksonville Center
08:50AM 29.2933 -82.5878 350° North 444 511 27,300 900 Climbing Jacksonville Center
08:51AM 29.4414 -82.5803 North 466 536 28,300 1,020 Climbing Jacksonville Center
08:52AM 29.5731 -82.5750 North 471 542 29,400 1,080 Climbing Jacksonville Center
08:53AM 29.7067 -82.5722 North 471 542 30,500 780 Climbing Jacksonville Center
08:54AM 29.8361 -82.5694 North 476 548 31,000 240 Climbing Jacksonville Center
08:55AM 29.9739 -82.5642 North 476 548 31,000  Level Jacksonville Center
08:56AM 30.1117 -82.5636 360° North 476 548 31,000 -60 Level Jacksonville Center
08:57AM 30.2453 -82.5608 North 481 554 30,900  Descending Jacksonville Center
08:58AM 30.3831 -82.5556 North 481 554 31,000  Climbing Jacksonville Center
08:59AM 30.5186 -82.5525 North 481 554 31,000 -60 Level Jacksonville Center
09:00AM 30.6564 -82.5447 North 481 554 30,900  Descending Jacksonville Center
09:01AM 30.7900 -82.5419 North 475 547 31,000  Climbing Jacksonville Center
09:02AM 30.9258 -82.5367 North 475 547 31,000  Level Jacksonville Center
09:03AM 31.0636 -82.5311 North 480 552 31,000 -60 Level Jacksonville Center
09:04AM 31.1972 -82.5258 North 480 552 30,900 -60 Descending Jacksonville Center
09:05AM 31.3372 -82.5206 North 481 554 30,900  Level Jacksonville Center
09:06AM 31.4622 -82.5125 North 489 563 31,000  Climbing Jacksonville Center
09:07AM 31.6042 -82.4975 North 496 571 31,000  Level Jacksonville Center
09:08AM 31.7461 -82.4747 North 507 583 31,000  Level Jacksonville Center
09:09AM 31.9928 -82.4372 North 499 574 31,000  Level Atlanta Center
09:10AM 32.1344 -82.4175 North 504 580 31,000  Level Atlanta Center
09:11AM 32.2719 -82.3931 North 504 580 31,000  Level Atlanta Center
09:12AM 32.4136 -82.3706 North 497 572 31,000  Level Atlanta Center
09:13AM 32.5531 -82.3458 North 503 579 31,000  Level Atlanta Center
09:14AM 32.6928 -82.3258 North 503 579 31,000  Level Atlanta Center
09:15AM 32.8364 -82.3033 North 503 579 31,000  Level Atlanta Center
09:16AM 32.9758 -82.2808 North 503 579 31,000  Level Atlanta Center
09:17AM 33.1175 -82.2581 North 503 579 31,000  Level Atlanta Center
09:18AM 33.2447 -82.2381 North 503 579 31,000  Level Atlanta Center
09:19AM 33.3842 -82.2153 North 503 579 31,000  Level Atlanta Center
09:20AM 33.5236 -82.1897 North 503 579 31,000  Level Atlanta Center
09:21AM 33.6631 -82.1669 North 503 579 31,000  Level Atlanta Center
09:22AM 33.8025 -82.1439 North 503 579 31,000  Level Atlanta Center
09:23AM 33.9400 -82.1208 North 503 579 31,000  Level Atlanta Center
09:24AM 34.0794 -82.0975 North 503 579 31,000  Level Atlanta Center
09:25AM 34.2167 -82.0719 North 503 579 31,000  Level Atlanta Center
09:26AM 34.3708 -82.0456 North 503 579 31,000  Level Atlanta Center
09:27AM 34.5081 -82.0222 North 498 573 31,000  Level Atlanta Center
09:28AM 34.6456 -81.9961 North 498 573 31,000  Level Atlanta Center
09:29AM 34.7828 -81.9725 North 503 579 31,000  Level Atlanta Center
09:30AM 34.9203 -81.9514 North 503 579 31,000  Level Atlanta Center
09:31AM 35.0575 -81.9253 North 503 579 31,000  Level Atlanta Center
09:32AM 35.1944 -81.8861 13° North 503 579 31,000  Level Atlanta Center
09:33AM 35.3294 -81.8469 13° North 503 579 31,000  Level Atlanta Center
09:34AM 35.4644 -81.8075 13° North 503 579 31,000  Level Atlanta Center
09:35AM 35.6033 -81.7681 13° North 503 579 31,000  Level Atlanta Center
09:36AM 35.7236 -81.7342 13° North 503 579 31,000  Level Atlanta Center
09:37AM 35.8628 -81.6942 13° North 503 579 31,000  Level Atlanta Center
09:38AM 35.9956 -81.6544 14° North 503 579 31,000  Level Atlanta Center
09:39AM 36.1344 -81.6169 12° North 503 579 31,000  Level Atlanta Center
09:40AM 36.2692 -81.5742 14° North 502 578 31,000  Level Atlanta Center
09:41AM 36.4081 -81.5314 14° North 502 578 31,000  Level Atlanta Center
09:42AM 36.5450 -81.4933 13° North 502 578 31,000  Level Atlanta Center
09:43AM 36.6817 -81.4528 13° North 502 578 31,000  Level Atlanta Center
09:44AM 36.8122 -81.4122 14° North 499 574 31,000  Level Atlanta Center
09:47AM 37.1789 -81.3042 13° North 506 582 31,000  Level Indianapolis Center
09:48AM 37.2944 -81.2689 14° North 506 582 31,000  Level Indianapolis Center
09:49AM 37.4564 -81.2206 13° North 506 582 31,000  Level Indianapolis Center
09:50AM 37.5906 -81.1808 13° North 506 582 31,000  Level Indianapolis Center
09:51AM 37.7239 -81.1400 14° North 506 582 31,000  Level Indianapolis Center
09:52AM 37.8625 -81.0992 13° North 506 582 31,000  Level Indianapolis Center
09:53AM 38.0258 -81.0517 13° North 506 582 31,000  Level Indianapolis Center
09:54AM 38.1606 -81.0119 13° North 501 577 31,000  Level Indianapolis Center
09:55AM 38.2956 -80.9736 13° North 501 577 31,000  Level Indianapolis Center
09:56AM 38.4300 -80.9342 13° North 501 577 31,000  Level Indianapolis Center
09:57AM 38.5647 -80.8944 13° North 501 577 31,000  Level Indianapolis Center
09:58AM 38.7256 -80.8478 13° North 500 575 31,000  Level Indianapolis Center
09:59AM 38.8583 -80.8069 13° North 499 574 31,000  Level Indianapolis Center
10:00AM 38.9914 -80.7681 13° North 497 572 31,000  Level Indianapolis Center
10:01AM 39.1233 -80.7300 13° North 492 566 31,000  Level Indianapolis Center
10:02AM 39.2561 -80.6914 13° North 491 565 31,000  Level Indianapolis Center
10:03AM 39.3839 -80.6500 14° North 481 554 31,000  Level Indianapolis Center
10:04AM 39.5414 -80.6056 12° North 481 554 31,000  Level Indianapolis Center
10:05AM 39.6511 -80.5658 16° North 478 550 31,000  Level Cleveland Center
10:06AM 39.7775 -80.5075 20° North 479 551 31,000  Level Cleveland Center
10:07AM 39.9050 -80.4486 20° North 486 559 31,000  Level Cleveland Center
10:08AM 40.0583 -80.3811 19° North 485 558 31,000  Level Cleveland Center
10:09AM 40.1850 -80.3244 19° North 482 555 31,000  Level Cleveland Center
10:11AM 40.3153 -80.2658 19° North 488 562 31,000  Level Cleveland Center
10:12AM 40.4389 -80.2103 19° North 497 572 31,000  Level Cleveland Center
10:13AM 40.5639 -80.1517 20° North 482 555 31,000  Level Cleveland Center
10:14AM 40.7164 -80.0833 19° North 481 554 31,000 -720 Level Cleveland Center
10:15AM 40.8436 -80.0258 19° North 482 555 29,600 -1,380 Descending Cleveland Center
10:16AM 40.9619 -79.9708 19° North 482 555 28,200 -1,440 Descending Cleveland Center
10:17AM 41.0894 -79.9117 19° North 483 556 26,700 -1,500 Descending Cleveland Center
10:18AM 41.2250 -79.8492 19° North 483 556 25,100 -1,320 Descending Cleveland Center
10:19AM 41.3492 -79.7914 19° North 475 547 24,000 -540 Descending Cleveland Center
10:20AM 41.4661 -79.7361 20° North 448 516 24,000  Level Cleveland Center
10:21AM 41.6011 -79.6725 19° North 433 498 24,000  Level Cleveland Center
10:22AM 41.7139 -79.6189 20° North 430 495 24,000  Level Cleveland Center
10:23AM 41.8261 -79.5658 19° North 429 494 24,000  Level Cleveland Center
10:24AM 41.9386 -79.5128 19° North 428 493 24,000  Level Cleveland Center
10:25AM 42.0514 -79.4583 20° North 428 493 24,000 -840 Level Cleveland Center
10:26AM 42.1631 -79.4053 19° North 428 493 22,300 -2,040 Descending Cleveland Center
10:27AM 42.2922 -79.3425 20° North 407 468 19,800 -2,040 Descending Cleveland Center
10:29AM 42.5033 -79.2419 19° North 378 435 16,100 -1,920 Descending Cleveland Center
10:30AM 42.6011 -79.1944 20° North 360 414 13,900 -1,980 Descending Cleveland Center
10:31AM 42.6867 -79.1533 19° North 342 394 12,100 -1,500 Descending Cleveland Center
10:32AM 42.7700 -79.1119 20° North 311 358 10,900 -1,680 Descending Cleveland Center
10:33AM 42.8456 -79.0758 19° North 282 325 8,700 -2,460 Descending Cleveland Center
10:34AM 42.9167 -79.0406 20° North 269 310 5,800 -2,700 Descending Cleveland Center
10:35AM 42.9881 -79.0050 20° North 267 307 3,100 -1,380 Descending Cleveland Center
10:36AM 43.0506 -78.9753 19° North 238 274 3,000 -120 Descending Cleveland Center
10:37AM 43.1072 -78.9481 19° North 216 249 2,900 -480 Descending Cleveland Center
10:38AM 43.1708 -78.9656 349° North 231 266 2,100 -480 Descending Cleveland Center
10:39AM 43.1775 -79.0453 277° West 225 259 2,000 -120 Descending Cleveland Center
10:40AM 43.1325 -79.0350 171° South 176 203 1,900 -360 Descending Cleveland Center
10:42AM 43.1100 -79.0097 141° Southeast 153 176 1,300 -600 Descending Cleveland Center